Pruitt, Arkansas
Current Conditions -  °F | °C
As of 12:53 PM on Friday 28 Nov 2014 (Local Time) from KHRO Reporting Station
Clear Clear  
Wind Chill: 59°   Ceiling: Unl
Heat Index: 59°   Visibility: 10mi
Dew Point: 34°   Wind: 10mph
Humidity: 39%   Direction: 170°S
Pressure: 30.05"   Gusts: NA
Location:  36.0842°N, 93.1502°W
Report Text: KHRO 281853Z AUTO 17009KT 10SM CLR 15/01 A3005 RMK AO2 SLP175 T01500011
Loading
Personal Weather Stations






























Interactive Weather Map New forecast layout! Learn more

10-Day Weather Forecast

Advertisements
Track Severe Weather on mobile